sensor_id;sensor_type;location;lat;lon;timestamp;P1;durP1;ratioP1;P2;durP2;ratioP2
72771;SDS011;60894;42.544;1.516;2023-08-30T00:02:18;8.73;;;2.90;;
72771;SDS011;60894;42.544;1.516;2023-08-30T00:04:45;7.65;;;2.50;;
72771;SDS011;60894;42.544;1.516;2023-08-30T00:07:12;7.88;;;2.72;;
72771;SDS011;60894;42.544;1.516;2023-08-30T00:09:39;7.43;;;2.60;;
72771;SDS011;60894;42.544;1.516;2023-08-30T00:12:06;9.82;;;2.40;;
72771;SDS011;60894;42.544;1.516;2023-08-30T00:14:34;7.05;;;2.20;;
72771;SDS011;60894;42.544;1.516;2023-08-30T00:17:01;6.90;;;2.25;;
72771;SDS011;60894;42.544;1.516;2023-08-30T00:19:28;7.25;;;1.92;;
72771;SDS011;60894;42.544;1.516;2023-08-30T00:21:55;5.93;;;1.90;;
72771;SDS011;60894;42.544;1.516;2023-08-30T00:24:22;6.07;;;1.92;;
72771;SDS011;60894;42.544;1.516;2023-08-30T00:26:49;5.45;;;1.75;;
72771;SDS011;60894;42.544;1.516;2023-08-30T00:29:16;7.88;;;1.90;;
72771;SDS011;60894;42.544;1.516;2023-08-30T00:31:44;5.90;;;1.90;;
72771;SDS011;60894;42.544;1.516;2023-08-30T00:34:11;6.10;;;1.87;;
72771;SDS011;60894;42.544;1.516;2023-08-30T00:36:39;9.50;;;2.42;;
72771;SDS011;60894;42.544;1.516;2023-08-30T00:39:05;5.75;;;1.80;;
72771;SDS011;60894;42.544;1.516;2023-08-30T00:41:33;6.72;;;2.08;;
72771;SDS011;60894;42.544;1.516;2023-08-30T00:44:00;6.15;;;2.03;;
72771;SDS011;60894;42.544;1.516;2023-08-30T00:46:27;6.53;;;1.60;;
72771;SDS011;60894;42.544;1.516;2023-08-30T00:48:56;6.40;;;1.70;;
72771;SDS011;60894;42.544;1.516;2023-08-30T00:51:23;7.43;;;2.28;;
72771;SDS011;60894;42.544;1.516;2023-08-30T00:53:51;7.22;;;1.80;;
72771;SDS011;60894;42.544;1.516;2023-08-30T00:56:18;5.57;;;1.90;;
72771;SDS011;60894;42.544;1.516;2023-08-30T00:58:46;7.33;;;2.10;;
72771;SDS011;60894;42.544;1.516;2023-08-30T01:01:14;5.45;;;1.85;;
72771;SDS011;60894;42.544;1.516;2023-08-30T01:03:41;7.32;;;2.22;;
72771;SDS011;60894;42.544;1.516;2023-08-30T01:06:10;5.15;;;1.88;;
72771;SDS011;60894;42.544;1.516;2023-08-30T01:08:38;7.38;;;2.00;;
72771;SDS011;60894;42.544;1.516;2023-08-30T01:11:08;6.67;;;2.00;;
72771;SDS011;60894;42.544;1.516;2023-08-30T01:13:45;5.15;;;1.77;;
72771;SDS011;60894;42.544;1.516;2023-08-30T01:16:17;7.20;;;1.95;;
72771;SDS011;60894;42.544;1.516;2023-08-30T01:18:45;5.05;;;1.60;;
72771;SDS011;60894;42.544;1.516;2023-08-30T01:21:27;7.57;;;1.73;;
72771;SDS011;60894;42.544;1.516;2023-08-30T01:24:04;5.90;;;1.83;;
72771;SDS011;60894;42.544;1.516;2023-08-30T01:26:36;6.78;;;2.13;;
72771;SDS011;60894;42.544;1.516;2023-08-30T01:29:10;7.35;;;1.60;;
72771;SDS011;60894;42.544;1.516;2023-08-30T01:31:39;6.35;;;1.80;;
72771;SDS011;60894;42.544;1.516;2023-08-30T01:34:07;6.45;;;1.70;;
72771;SDS011;60894;42.544;1.516;2023-08-30T01:36:35;7.40;;;1.90;;
72771;SDS011;60894;42.544;1.516;2023-08-30T01:39:02;6.25;;;1.80;;
72771;SDS011;60894;42.544;1.516;2023-08-30T01:41:30;5.50;;;1.83;;
72771;SDS011;60894;42.544;1.516;2023-08-30T01:43:58;6.85;;;2.00;;
72771;SDS011;60894;42.544;1.516;2023-08-30T01:46:30;6.82;;;2.13;;
72771;SDS011;60894;42.544;1.516;2023-08-30T01:48:58;6.43;;;1.97;;
72771;SDS011;60894;42.544;1.516;2023-08-30T01:51:26;6.78;;;1.80;;
72771;SDS011;60894;42.544;1.516;2023-08-30T01:53:54;6.40;;;1.90;;
72771;SDS011;60894;42.544;1.516;2023-08-30T01:56:24;7.15;;;2.15;;
72771;SDS011;60894;42.544;1.516;2023-08-30T01:58:51;8.00;;;2.70;;
72771;SDS011;60894;42.544;1.516;2023-08-30T02:01:18;5.43;;;1.77;;
72771;SDS011;60894;42.544;1.516;2023-08-30T02:03:46;5.80;;;1.90;;
72771;SDS011;60894;42.544;1.516;2023-08-30T02:06:14;5.72;;;2.00;;
72771;SDS011;60894;42.544;1.516;2023-08-30T02:08:49;5.65;;;1.85;;
72771;SDS011;60894;42.544;1.516;2023-08-30T02:11:22;7.53;;;2.22;;
72771;SDS011;60894;42.544;1.516;2023-08-30T02:13:52;6.47;;;1.83;;
72771;SDS011;60894;42.544;1.516;2023-08-30T02:16:20;7.78;;;2.00;;
72771;SDS011;60894;42.544;1.516;2023-08-30T02:18:50;6.80;;;2.03;;
72771;SDS011;60894;42.544;1.516;2023-08-30T02:21:18;5.35;;;1.80;;
72771;SDS011;60894;42.544;1.516;2023-08-30T02:23:48;6.85;;;1.83;;
72771;SDS011;60894;42.544;1.516;2023-08-30T02:26:17;5.10;;;1.60;;
72771;SDS011;60894;42.544;1.516;2023-08-30T02:28:44;6.40;;;1.88;;
72771;SDS011;60894;42.544;1.516;2023-08-30T02:31:11;7.82;;;1.90;;
72771;SDS011;60894;42.544;1.516;2023-08-30T02:33:38;6.35;;;2.20;;
72771;SDS011;60894;42.544;1.516;2023-08-30T02:36:07;7.00;;;1.77;;
72771;SDS011;60894;42.544;1.516;2023-08-30T02:38:34;6.43;;;1.90;;
72771;SDS011;60894;42.544;1.516;2023-08-30T02:41:00;8.00;;;1.90;;
72771;SDS011;60894;42.544;1.516;2023-08-30T02:43:28;5.55;;;1.70;;
72771;SDS011;60894;42.544;1.516;2023-08-30T02:45:55;6.05;;;2.00;;
72771;SDS011;60894;42.544;1.516;2023-08-30T02:48:21;6.13;;;1.70;;
72771;SDS011;60894;42.544;1.516;2023-08-30T02:50:48;7.40;;;2.00;;
72771;SDS011;60894;42.544;1.516;2023-08-30T02:53:17;7.78;;;2.45;;
72771;SDS011;60894;42.544;1.516;2023-08-30T02:55:44;7.28;;;2.20;;
72771;SDS011;60894;42.544;1.516;2023-08-30T02:58:12;8.23;;;2.67;;
72771;SDS011;60894;42.544;1.516;2023-08-30T03:00:39;5.97;;;2.13;;
72771;SDS011;60894;42.544;1.516;2023-08-30T03:03:06;6.40;;;1.80;;
72771;SDS011;60894;42.544;1.516;2023-08-30T03:05:33;6.43;;;1.80;;
72771;SDS011;60894;42.544;1.516;2023-08-30T03:08:00;6.68;;;2.10;;
72771;SDS011;60894;42.544;1.516;2023-08-30T03:10:29;6.80;;;1.70;;
72771;SDS011;60894;42.544;1.516;2023-08-30T03:12:56;5.72;;;2.03;;
72771;SDS011;60894;42.544;1.516;2023-08-30T03:15:23;7.20;;;2.13;;
72771;SDS011;60894;42.544;1.516;2023-08-30T03:17:50;6.25;;;1.85;;
72771;SDS011;60894;42.544;1.516;2023-08-30T03:20:17;5.82;;;1.90;;
72771;SDS011;60894;42.544;1.516;2023-08-30T03:22:44;5.60;;;1.70;;
72771;SDS011;60894;42.544;1.516;2023-08-30T03:25:11;5.30;;;1.70;;
72771;SDS011;60894;42.544;1.516;2023-08-30T03:27:39;6.10;;;2.20;;
72771;SDS011;60894;42.544;1.516;2023-08-30T03:30:06;6.70;;;2.10;;
72771;SDS011;60894;42.544;1.516;2023-08-30T03:32:34;6.40;;;1.90;;
72771;SDS011;60894;42.544;1.516;2023-08-30T03:35:02;6.35;;;2.00;;
72771;SDS011;60894;42.544;1.516;2023-08-30T03:37:29;6.07;;;1.80;;
72771;SDS011;60894;42.544;1.516;2023-08-30T03:39:56;5.27;;;1.50;;
72771;SDS011;60894;42.544;1.516;2023-08-30T03:42:23;4.93;;;1.60;;
72771;SDS011;60894;42.544;1.516;2023-08-30T03:44:51;5.47;;;1.70;;
72771;SDS011;60894;42.544;1.516;2023-08-30T03:47:18;6.78;;;1.67;;
72771;SDS011;60894;42.544;1.516;2023-08-30T03:49:45;4.97;;;1.40;;
72771;SDS011;60894;42.544;1.516;2023-08-30T03:52:12;5.93;;;1.50;;
72771;SDS011;60894;42.544;1.516;2023-08-30T03:54:39;4.28;;;1.35;;
72771;SDS011;60894;42.544;1.516;2023-08-30T03:57:06;8.30;;;2.60;;
72771;SDS011;60894;42.544;1.516;2023-08-30T03:59:33;4.57;;;1.40;;
72771;SDS011;60894;42.544;1.516;2023-08-30T04:02:01;5.60;;;1.60;;
72771;SDS011;60894;42.544;1.516;2023-08-30T04:04:28;5.70;;;1.70;;
72771;SDS011;60894;42.544;1.516;2023-08-30T04:06:55;5.55;;;1.50;;
72771;SDS011;60894;42.544;1.516;2023-08-30T04:09:22;6.00;;;1.80;;
72771;SDS011;60894;42.544;1.516;2023-08-30T04:11:49;6.45;;;1.98;;
72771;SDS011;60894;42.544;1.516;2023-08-30T04:14:16;5.63;;;1.70;;
72771;SDS011;60894;42.544;1.516;2023-08-30T04:16:43;6.13;;;1.63;;
72771;SDS011;60894;42.544;1.516;2023-08-30T04:19:11;6.70;;;1.70;;
72771;SDS011;60894;42.544;1.516;2023-08-30T04:21:38;5.78;;;1.73;;
72771;SDS011;60894;42.544;1.516;2023-08-30T04:24:05;5.88;;;1.60;;
72771;SDS011;60894;42.544;1.516;2023-08-30T04:26:33;4.70;;;1.40;;
72771;SDS011;60894;42.544;1.516;2023-08-30T04:28:59;6.63;;;1.80;;
72771;SDS011;60894;42.544;1.516;2023-08-30T04:31:28;5.50;;;1.45;;
72771;SDS011;60894;42.544;1.516;2023-08-30T04:33:55;5.03;;;1.67;;
72771;SDS011;60894;42.544;1.516;2023-08-30T04:36:23;5.45;;;1.55;;
72771;SDS011;60894;42.544;1.516;2023-08-30T04:38:50;5.80;;;1.48;;
72771;SDS011;60894;42.544;1.516;2023-08-30T04:41:17;4.40;;;1.50;;
72771;SDS011;60894;42.544;1.516;2023-08-30T04:43:44;5.25;;;1.60;;
72771;SDS011;60894;42.544;1.516;2023-08-30T04:46:11;5.03;;;1.73;;
72771;SDS011;60894;42.544;1.516;2023-08-30T04:48:38;5.95;;;1.90;;
72771;SDS011;60894;42.544;1.516;2023-08-30T04:51:04;5.07;;;1.67;;
72771;SDS011;60894;42.544;1.516;2023-08-30T04:53:33;6.90;;;2.17;;
72771;SDS011;60894;42.544;1.516;2023-08-30T04:56:00;6.15;;;2.05;;
72771;SDS011;60894;42.544;1.516;2023-08-30T04:58:27;8.90;;;2.65;;
72771;SDS011;60894;42.544;1.516;2023-08-30T05:00:55;4.30;;;1.42;;
72771;SDS011;60894;42.544;1.516;2023-08-30T05:03:23;5.07;;;1.60;;
72771;SDS011;60894;42.544;1.516;2023-08-30T05:05:50;4.87;;;1.43;;
72771;SDS011;60894;42.544;1.516;2023-08-30T05:08:17;6.18;;;1.58;;
72771;SDS011;60894;42.544;1.516;2023-08-30T05:10:45;5.13;;;1.58;;
72771;SDS011;60894;42.544;1.516;2023-08-30T05:13:14;5.15;;;1.52;;
72771;SDS011;60894;42.544;1.516;2023-08-30T05:15:41;4.78;;;1.40;;
72771;SDS011;60894;42.544;1.516;2023-08-30T05:18:08;5.70;;;1.70;;
72771;SDS011;60894;42.544;1.516;2023-08-30T05:20:35;5.47;;;1.83;;
72771;SDS011;60894;42.544;1.516;2023-08-30T05:23:02;6.97;;;1.90;;
72771;SDS011;60894;42.544;1.516;2023-08-30T05:25:29;6.35;;;2.00;;
72771;SDS011;60894;42.544;1.516;2023-08-30T05:27:58;5.30;;;1.70;;
72771;SDS011;60894;42.544;1.516;2023-08-30T05:30:25;5.40;;;1.73;;
72771;SDS011;60894;42.544;1.516;2023-08-30T05:32:52;4.18;;;1.50;;
72771;SDS011;60894;42.544;1.516;2023-08-30T05:35:19;4.95;;;1.60;;
72771;SDS011;60894;42.544;1.516;2023-08-30T05:37:45;4.70;;;1.52;;
72771;SDS011;60894;42.544;1.516;2023-08-30T05:40:13;4.15;;;1.45;;
72771;SDS011;60894;42.544;1.516;2023-08-30T05:42:42;4.93;;;1.60;;
72771;SDS011;60894;42.544;1.516;2023-08-30T05:45:11;5.75;;;1.48;;
72771;SDS011;60894;42.544;1.516;2023-08-30T05:47:38;6.72;;;1.90;;
72771;SDS011;60894;42.544;1.516;2023-08-30T05:50:05;5.40;;;1.60;;
72771;SDS011;60894;42.544;1.516;2023-08-30T05:52:33;7.95;;;1.70;;
72771;SDS011;60894;42.544;1.516;2023-08-30T05:54:59;6.60;;;1.57;;
72771;SDS011;60894;42.544;1.516;2023-08-30T05:57:27;4.57;;;1.65;;
72771;SDS011;60894;42.544;1.516;2023-08-30T05:59:58;5.78;;;1.67;;
72771;SDS011;60894;42.544;1.516;2023-08-30T06:02:27;4.13;;;1.58;;
72771;SDS011;60894;42.544;1.516;2023-08-30T06:04:53;7.15;;;1.60;;
72771;SDS011;60894;42.544;1.516;2023-08-30T06:07:20;5.33;;;1.57;;
72771;SDS011;60894;42.544;1.516;2023-08-30T06:09:47;4.82;;;1.60;;
72771;SDS011;60894;42.544;1.516;2023-08-30T06:12:14;5.88;;;1.70;;
72771;SDS011;60894;42.544;1.516;2023-08-30T06:14:42;5.03;;;1.60;;
72771;SDS011;60894;42.544;1.516;2023-08-30T06:17:15;5.53;;;1.50;;
72771;SDS011;60894;42.544;1.516;2023-08-30T06:19:43;6.40;;;1.70;;
72771;SDS011;60894;42.544;1.516;2023-08-30T06:22:11;6.95;;;2.00;;
72771;SDS011;60894;42.544;1.516;2023-08-30T06:24:36;5.75;;;1.70;;
72771;SDS011;60894;42.544;1.516;2023-08-30T06:27:04;5.38;;;2.00;;
72771;SDS011;60894;42.544;1.516;2023-08-30T06:29:31;6.60;;;1.90;;
72771;SDS011;60894;42.544;1.516;2023-08-30T06:31:58;5.70;;;1.80;;
72771;SDS011;60894;42.544;1.516;2023-08-30T06:34:25;4.65;;;1.65;;
72771;SDS011;60894;42.544;1.516;2023-08-30T06:36:53;5.90;;;1.65;;
72771;SDS011;60894;42.544;1.516;2023-08-30T06:39:20;6.20;;;1.70;;
72771;SDS011;60894;42.544;1.516;2023-08-30T06:41:47;6.82;;;2.10;;
72771;SDS011;60894;42.544;1.516;2023-08-30T06:44:14;5.57;;;1.80;;
72771;SDS011;60894;42.544;1.516;2023-08-30T06:46:42;6.63;;;1.98;;
72771;SDS011;60894;42.544;1.516;2023-08-30T06:49:09;6.03;;;1.70;;
72771;SDS011;60894;42.544;1.516;2023-08-30T06:51:36;6.22;;;1.90;;
72771;SDS011;60894;42.544;1.516;2023-08-30T06:54:04;7.25;;;1.90;;
72771;SDS011;60894;42.544;1.516;2023-08-30T06:56:31;4.63;;;1.70;;
72771;SDS011;60894;42.544;1.516;2023-08-30T06:58:58;6.20;;;1.50;;
72771;SDS011;60894;42.544;1.516;2023-08-30T07:01:25;9.63;;;1.85;;
72771;SDS011;60894;42.544;1.516;2023-08-30T07:03:52;5.22;;;1.73;;
72771;SDS011;60894;42.544;1.516;2023-08-30T07:06:19;4.40;;;1.65;;
72771;SDS011;60894;42.544;1.516;2023-08-30T07:08:46;8.23;;;2.60;;
72771;SDS011;60894;42.544;1.516;2023-08-30T07:11:14;9.35;;;2.90;;
72771;SDS011;60894;42.544;1.516;2023-08-30T07:13:41;7.45;;;3.00;;
72771;SDS011;60894;42.544;1.516;2023-08-30T07:16:08;7.95;;;1.70;;
72771;SDS011;60894;42.544;1.516;2023-08-30T07:18:35;6.68;;;1.60;;
72771;SDS011;60894;42.544;1.516;2023-08-30T07:21:02;5.90;;;1.83;;
72771;SDS011;60894;42.544;1.516;2023-08-30T07:23:29;9.65;;;1.88;;
72771;SDS011;60894;42.544;1.516;2023-08-30T07:25:56;8.23;;;1.85;;
72771;SDS011;60894;42.544;1.516;2023-08-30T07:28:24;6.70;;;1.80;;
72771;SDS011;60894;42.544;1.516;2023-08-30T07:30:51;7.35;;;1.85;;
72771;SDS011;60894;42.544;1.516;2023-08-30T07:33:18;6.50;;;1.33;;
72771;SDS011;60894;42.544;1.516;2023-08-30T07:35:45;5.97;;;1.40;;
72771;SDS011;60894;42.544;1.516;2023-08-30T07:38:12;5.50;;;1.60;;
72771;SDS011;60894;42.544;1.516;2023-08-30T07:40:39;5.75;;;1.48;;
72771;SDS011;60894;42.544;1.516;2023-08-30T07:43:06;7.13;;;1.60;;
72771;SDS011;60894;42.544;1.516;2023-08-30T07:45:34;3.47;;;1.30;;
72771;SDS011;60894;42.544;1.516;2023-08-30T07:48:01;6.97;;;1.83;;
72771;SDS011;60894;42.544;1.516;2023-08-30T07:50:28;6.90;;;1.50;;
72771;SDS011;60894;42.544;1.516;2023-08-30T07:52:55;7.30;;;2.30;;
72771;SDS011;60894;42.544;1.516;2023-08-30T07:55:22;9.35;;;2.47;;
72771;SDS011;60894;42.544;1.516;2023-08-30T07:57:49;7.27;;;2.10;;
72771;SDS011;60894;42.544;1.516;2023-08-30T08:00:17;5.90;;;2.10;;
72771;SDS011;60894;42.544;1.516;2023-08-30T08:02:45;7.20;;;2.20;;
72771;SDS011;60894;42.544;1.516;2023-08-30T08:05:12;7.10;;;2.35;;
72771;SDS011;60894;42.544;1.516;2023-08-30T08:07:39;7.22;;;1.90;;
72771;SDS011;60894;42.544;1.516;2023-08-30T08:10:08;6.93;;;1.80;;
72771;SDS011;60894;42.544;1.516;2023-08-30T08:12:35;4.78;;;1.40;;
72771;SDS011;60894;42.544;1.516;2023-08-30T08:15:02;3.35;;;1.20;;
72771;SDS011;60894;42.544;1.516;2023-08-30T08:17:30;4.05;;;1.00;;
72771;SDS011;60894;42.544;1.516;2023-08-30T08:19:58;4.47;;;1.35;;
72771;SDS011;60894;42.544;1.516;2023-08-30T08:22:25;4.33;;;1.47;;
72771;SDS011;60894;42.544;1.516;2023-08-30T08:24:53;6.00;;;1.90;;
72771;SDS011;60894;42.544;1.516;2023-08-30T08:27:21;5.50;;;1.60;;
72771;SDS011;60894;42.544;1.516;2023-08-30T08:29:48;6.00;;;2.35;;
72771;SDS011;60894;42.544;1.516;2023-08-30T08:32:15;5.05;;;1.90;;
72771;SDS011;60894;42.544;1.516;2023-08-30T08:34:42;4.37;;;1.33;;
72771;SDS011;60894;42.544;1.516;2023-08-30T08:37:10;4.30;;;1.40;;
72771;SDS011;60894;42.544;1.516;2023-08-30T08:39:37;6.32;;;1.92;;
72771;SDS011;60894;42.544;1.516;2023-08-30T08:42:04;7.05;;;1.60;;
72771;SDS011;60894;42.544;1.516;2023-08-30T08:44:32;6.40;;;1.60;;
72771;SDS011;60894;42.544;1.516;2023-08-30T08:47:01;5.40;;;1.40;;
72771;SDS011;60894;42.544;1.516;2023-08-30T08:49:28;6.80;;;1.50;;
72771;SDS011;60894;42.544;1.516;2023-08-30T08:51:56;5.18;;;1.38;;
72771;SDS011;60894;42.544;1.516;2023-08-30T08:54:25;5.05;;;1.60;;
72771;SDS011;60894;42.544;1.516;2023-08-30T08:56:52;8.98;;;2.20;;
72771;SDS011;60894;42.544;1.516;2023-08-30T08:59:19;5.40;;;1.80;;
72771;SDS011;60894;42.544;1.516;2023-08-30T09:01:47;8.15;;;2.28;;
72771;SDS011;60894;42.544;1.516;2023-08-30T09:04:15;5.53;;;2.00;;
72771;SDS011;60894;42.544;1.516;2023-08-30T09:06:42;8.52;;;2.30;;
72771;SDS011;60894;42.544;1.516;2023-08-30T09:09:09;6.68;;;1.73;;
72771;SDS011;60894;42.544;1.516;2023-08-30T09:11:38;4.17;;;1.50;;
72771;SDS011;60894;42.544;1.516;2023-08-30T09:14:05;4.75;;;1.67;;
72771;SDS011;60894;42.544;1.516;2023-08-30T09:16:32;5.60;;;1.50;;
72771;SDS011;60894;42.544;1.516;2023-08-30T09:19:00;5.80;;;1.90;;
72771;SDS011;60894;42.544;1.516;2023-08-30T09:21:28;4.80;;;1.50;;
72771;SDS011;60894;42.544;1.516;2023-08-30T09:23:56;6.00;;;1.80;;
72771;SDS011;60894;42.544;1.516;2023-08-30T09:26:24;6.57;;;2.10;;
72771;SDS011;60894;42.544;1.516;2023-08-30T09:28:55;5.82;;;1.70;;
72771;SDS011;60894;42.544;1.516;2023-08-30T09:31:21;6.05;;;1.50;;
72771;SDS011;60894;42.544;1.516;2023-08-30T09:33:48;6.20;;;1.60;;
72771;SDS011;60894;42.544;1.516;2023-08-30T09:36:16;5.83;;;1.30;;
72771;SDS011;60894;42.544;1.516;2023-08-30T09:38:47;4.45;;;1.00;;
72771;SDS011;60894;42.544;1.516;2023-08-30T09:41:15;4.18;;;1.20;;
72771;SDS011;60894;42.544;1.516;2023-08-30T09:43:42;4.75;;;1.30;;
72771;SDS011;60894;42.544;1.516;2023-08-30T09:46:11;3.30;;;1.02;;
72771;SDS011;60894;42.544;1.516;2023-08-30T09:48:38;9.80;;;1.30;;
72771;SDS011;60894;42.544;1.516;2023-08-30T09:51:06;3.33;;;1.17;;
72771;SDS011;60894;42.544;1.516;2023-08-30T09:53:37;3.67;;;1.00;;
72771;SDS011;60894;42.544;1.516;2023-08-30T09:56:10;3.03;;;1.10;;
72771;SDS011;60894;42.544;1.516;2023-08-30T09:58:38;4.00;;;1.20;;
72771;SDS011;60894;42.544;1.516;2023-08-30T10:01:07;3.87;;;1.27;;
72771;SDS011;60894;42.544;1.516;2023-08-30T10:03:36;3.00;;;1.10;;
72771;SDS011;60894;42.544;1.516;2023-08-30T10:06:04;3.25;;;1.10;;
72771;SDS011;60894;42.544;1.516;2023-08-30T10:08:32;3.17;;;1.02;;
72771;SDS011;60894;42.544;1.516;2023-08-30T10:11:02;2.55;;;1.35;;
72771;SDS011;60894;42.544;1.516;2023-08-30T10:13:29;3.03;;;1.10;;
72771;SDS011;60894;42.544;1.516;2023-08-30T10:15:58;2.75;;;1.10;;
72771;SDS011;60894;42.544;1.516;2023-08-30T10:18:29;3.10;;;1.13;;
72771;SDS011;60894;42.544;1.516;2023-08-30T10:21:02;2.78;;;0.90;;
72771;SDS011;60894;42.544;1.516;2023-08-30T10:23:33;3.08;;;0.90;;
72771;SDS011;60894;42.544;1.516;2023-08-30T10:26:03;5.93;;;0.93;;
72771;SDS011;60894;42.544;1.516;2023-08-30T10:28:32;2.88;;;0.90;;
72771;SDS011;60894;42.544;1.516;2023-08-30T10:31:00;4.20;;;1.27;;
72771;SDS011;60894;42.544;1.516;2023-08-30T10:33:28;4.05;;;1.50;;
72771;SDS011;60894;42.544;1.516;2023-08-30T10:36:02;2.78;;;1.30;;
72771;SDS011;60894;42.544;1.516;2023-08-30T10:38:32;1.63;;;0.63;;
72771;SDS011;60894;42.544;1.516;2023-08-30T10:41:06;1.85;;;0.80;;
72771;SDS011;60894;42.544;1.516;2023-08-30T10:43:35;2.03;;;0.77;;
72771;SDS011;60894;42.544;1.516;2023-08-30T10:46:03;1.63;;;0.70;;
72771;SDS011;60894;42.544;1.516;2023-08-30T10:48:38;3.15;;;1.00;;
72771;SDS011;60894;42.544;1.516;2023-08-30T10:51:20;0.93;;;0.43;;
72771;SDS011;60894;42.544;1.516;2023-08-30T10:53:57;1.40;;;0.50;;
72771;SDS011;60894;42.544;1.516;2023-08-30T10:56:27;1.27;;;0.73;;
72771;SDS011;60894;42.544;1.516;2023-08-30T10:58:55;1.92;;;0.50;;
72771;SDS011;60894;42.544;1.516;2023-08-30T11:01:22;0.93;;;0.40;;
72771;SDS011;60894;42.544;1.516;2023-08-30T11:03:50;1.67;;;0.60;;
72771;SDS011;60894;42.544;1.516;2023-08-30T11:06:19;1.25;;;0.57;;
72771;SDS011;60894;42.544;1.516;2023-08-30T11:08:47;0.73;;;0.50;;
72771;SDS011;60894;42.544;1.516;2023-08-30T11:11:16;0.88;;;0.45;;
72771;SDS011;60894;42.544;1.516;2023-08-30T11:13:43;2.47;;;1.10;;
72771;SDS011;60894;42.544;1.516;2023-08-30T11:16:10;1.60;;;0.60;;
72771;SDS011;60894;42.544;1.516;2023-08-30T11:18:37;1.67;;;0.70;;
72771;SDS011;60894;42.544;1.516;2023-08-30T11:21:06;1.40;;;0.80;;
72771;SDS011;60894;42.544;1.516;2023-08-30T11:23:35;2.60;;;0.60;;
72771;SDS011;60894;42.544;1.516;2023-08-30T11:26:02;1.10;;;0.50;;
72771;SDS011;60894;42.544;1.516;2023-08-30T11:28:30;1.30;;;0.50;;
72771;SDS011;60894;42.544;1.516;2023-08-30T11:30:57;0.43;;;0.38;;
72771;SDS011;60894;42.544;1.516;2023-08-30T11:33:24;1.67;;;0.70;;
72771;SDS011;60894;42.544;1.516;2023-08-30T11:35:51;4.10;;;0.80;;
72771;SDS011;60894;42.544;1.516;2023-08-30T11:38:18;2.15;;;0.75;;
72771;SDS011;60894;42.544;1.516;2023-08-30T11:40:49;1.23;;;0.70;;
72771;SDS011;60894;42.544;1.516;2023-08-30T11:43:17;2.70;;;0.85;;
72771;SDS011;60894;42.544;1.516;2023-08-30T11:45:45;1.30;;;0.55;;
72771;SDS011;60894;42.544;1.516;2023-08-30T11:48:12;0.70;;;0.40;;
72771;SDS011;60894;42.544;1.516;2023-08-30T11:50:40;2.63;;;0.80;;
72771;SDS011;60894;42.544;1.516;2023-08-30T11:53:08;3.20;;;1.00;;
72771;SDS011;60894;42.544;1.516;2023-08-30T11:55:36;2.38;;;0.80;;
72771;SDS011;60894;42.544;1.516;2023-08-30T11:58:05;2.85;;;0.68;;
72771;SDS011;60894;42.544;1.516;2023-08-30T12:00:34;1.73;;;0.85;;
72771;SDS011;60894;42.544;1.516;2023-08-30T12:03:03;2.53;;;0.90;;
72771;SDS011;60894;42.544;1.516;2023-08-30T12:05:31;1.07;;;0.50;;
72771;SDS011;60894;42.544;1.516;2023-08-30T12:08:00;1.67;;;0.73;;
72771;SDS011;60894;42.544;1.516;2023-08-30T12:10:28;1.63;;;0.80;;
72771;SDS011;60894;42.544;1.516;2023-08-30T12:12:57;1.52;;;0.70;;
72771;SDS011;60894;42.544;1.516;2023-08-30T12:15:25;2.15;;;0.85;;
72771;SDS011;60894;42.544;1.516;2023-08-30T12:17:53;3.77;;;0.90;;
72771;SDS011;60894;42.544;1.516;2023-08-30T12:20:21;1.67;;;0.68;;
72771;SDS011;60894;42.544;1.516;2023-08-30T12:22:48;1.40;;;0.70;;
72771;SDS011;60894;42.544;1.516;2023-08-30T12:25:16;0.63;;;0.40;;
72771;SDS011;60894;42.544;1.516;2023-08-30T12:27:44;0.73;;;0.52;;
72771;SDS011;60894;42.544;1.516;2023-08-30T12:30:12;1.13;;;0.60;;
72771;SDS011;60894;42.544;1.516;2023-08-30T12:32:41;1.23;;;0.80;;
72771;SDS011;60894;42.544;1.516;2023-08-30T12:35:08;2.20;;;1.00;;
72771;SDS011;60894;42.544;1.516;2023-08-30T12:37:35;1.23;;;0.80;;
72771;SDS011;60894;42.544;1.516;2023-08-30T12:40:02;1.30;;;0.70;;
72771;SDS011;60894;42.544;1.516;2023-08-30T12:42:31;1.60;;;0.90;;
72771;SDS011;60894;42.544;1.516;2023-08-30T12:44:58;1.15;;;0.60;;
72771;SDS011;60894;42.544;1.516;2023-08-30T12:47:25;1.00;;;0.60;;
72771;SDS011;60894;42.544;1.516;2023-08-30T12:49:53;1.05;;;0.60;;
72771;SDS011;60894;42.544;1.516;2023-08-30T12:52:20;1.25;;;0.68;;
72771;SDS011;60894;42.544;1.516;2023-08-30T12:54:47;1.33;;;0.50;;
72771;SDS011;60894;42.544;1.516;2023-08-30T12:57:14;2.20;;;0.50;;
72771;SDS011;60894;42.544;1.516;2023-08-30T12:59:41;2.92;;;1.20;;
72771;SDS011;60894;42.544;1.516;2023-08-30T13:02:08;1.73;;;0.70;;
72771;SDS011;60894;42.544;1.516;2023-08-30T13:04:35;2.10;;;0.70;;
72771;SDS011;60894;42.544;1.516;2023-08-30T13:07:05;1.90;;;0.70;;
72771;SDS011;60894;42.544;1.516;2023-08-30T13:09:32;1.77;;;0.70;;
72771;SDS011;60894;42.544;1.516;2023-08-30T13:11:59;0.80;;;0.65;;
72771;SDS011;60894;42.544;1.516;2023-08-30T13:14:25;1.50;;;0.70;;
72771;SDS011;60894;42.544;1.516;2023-08-30T13:16:52;2.00;;;0.80;;
72771;SDS011;60894;42.544;1.516;2023-08-30T13:19:19;1.03;;;0.60;;
72771;SDS011;60894;42.544;1.516;2023-08-30T13:21:46;1.30;;;0.68;;
72771;SDS011;60894;42.544;1.516;2023-08-30T13:24:15;1.70;;;0.70;;
72771;SDS011;60894;42.544;1.516;2023-08-30T13:26:42;1.67;;;0.70;;
72771;SDS011;60894;42.544;1.516;2023-08-30T13:29:10;1.50;;;0.60;;
72771;SDS011;60894;42.544;1.516;2023-08-30T13:31:36;3.47;;;0.70;;
72771;SDS011;60894;42.544;1.516;2023-08-30T13:34:03;1.92;;;0.70;;
72771;SDS011;60894;42.544;1.516;2023-08-30T13:36:30;1.17;;;0.70;;
72771;SDS011;60894;42.544;1.516;2023-08-30T13:38:57;1.05;;;0.60;;
72771;SDS011;60894;42.544;1.516;2023-08-30T13:41:26;1.55;;;0.60;;
72771;SDS011;60894;42.544;1.516;2023-08-30T13:43:53;0.90;;;0.60;;
72771;SDS011;60894;42.544;1.516;2023-08-30T13:46:20;1.85;;;0.77;;
72771;SDS011;60894;42.544;1.516;2023-08-30T13:48:49;1.83;;;0.80;;
72771;SDS011;60894;42.544;1.516;2023-08-30T13:51:21;1.58;;;0.60;;
72771;SDS011;60894;42.544;1.516;2023-08-30T13:53:49;1.88;;;0.80;;
72771;SDS011;60894;42.544;1.516;2023-08-30T13:56:17;2.10;;;0.60;;
72771;SDS011;60894;42.544;1.516;2023-08-30T13:58:46;1.95;;;0.70;;
72771;SDS011;60894;42.544;1.516;2023-08-30T14:01:13;1.75;;;0.80;;
72771;SDS011;60894;42.544;1.516;2023-08-30T14:03:40;3.20;;;0.60;;
72771;SDS011;60894;42.544;1.516;2023-08-30T14:06:07;0.80;;;0.60;;
72771;SDS011;60894;42.544;1.516;2023-08-30T14:08:34;1.47;;;0.77;;
72771;SDS011;60894;42.544;1.516;2023-08-30T14:11:01;1.80;;;0.70;;
72771;SDS011;60894;42.544;1.516;2023-08-30T14:13:28;0.93;;;0.60;;
72771;SDS011;60894;42.544;1.516;2023-08-30T14:15:59;1.08;;;0.60;;
72771;SDS011;60894;42.544;1.516;2023-08-30T14:18:26;1.27;;;0.77;;
72771;SDS011;60894;42.544;1.516;2023-08-30T14:20:55;1.40;;;0.80;;
72771;SDS011;60894;42.544;1.516;2023-08-30T14:23:22;1.63;;;0.82;;
72771;SDS011;60894;42.544;1.516;2023-08-30T14:25:54;1.05;;;0.70;;
72771;SDS011;60894;42.544;1.516;2023-08-30T14:28:22;1.60;;;0.88;;
72771;SDS011;60894;42.544;1.516;2023-08-30T14:30:49;1.45;;;0.60;;
72771;SDS011;60894;42.544;1.516;2023-08-30T14:33:18;1.77;;;0.90;;
72771;SDS011;60894;42.544;1.516;2023-08-30T14:35:45;1.63;;;0.70;;
72771;SDS011;60894;42.544;1.516;2023-08-30T14:38:12;2.08;;;0.77;;
72771;SDS011;60894;42.544;1.516;2023-08-30T14:40:38;2.28;;;0.70;;
72771;SDS011;60894;42.544;1.516;2023-08-30T14:43:07;3.10;;;0.88;;
72771;SDS011;60894;42.544;1.516;2023-08-30T14:45:33;1.70;;;0.70;;
72771;SDS011;60894;42.544;1.516;2023-08-30T14:48:00;1.50;;;0.70;;
72771;SDS011;60894;42.544;1.516;2023-08-30T14:50:29;2.25;;;0.90;;
72771;SDS011;60894;42.544;1.516;2023-08-30T14:52:56;1.70;;;0.98;;